sensor_id;sensor_type;location;lat;lon;timestamp;pressure;altitude;pressure_sealevel;temperature;humidity
64053;BME280;50299;49.524;8.536;2023-01-31T00:01:24;101483.06;;;0.55;69.48
64053;BME280;50299;49.524;8.536;2023-01-31T00:03:53;101483.41;;;0.70;68.15
64053;BME280;50299;49.524;8.536;2023-01-31T00:06:26;101496.78;;;0.83;70.51
64053;BME280;50299;49.524;8.536;2023-01-31T00:08:53;101482.03;;;1.19;68.74
64053;BME280;50299;49.524;8.536;2023-01-31T00:11:22;101483.28;;;0.77;66.95
64053;BME280;50299;49.524;8.536;2023-01-31T00:13:49;101481.25;;;0.95;68.33
64053;BME280;50299;49.524;8.536;2023-01-31T00:16:17;101477.88;;;1.17;66.85
64053;BME280;50299;49.524;8.536;2023-01-31T00:18:44;101482.31;;;0.94;67.81
64053;BME280;50299;49.524;8.536;2023-01-31T00:21:19;101485.28;;;0.81;70.23
64053;BME280;50299;49.524;8.536;2023-01-31T00:23:47;101487.44;;;0.67;67.40
64053;BME280;50299;49.524;8.536;2023-01-31T00:26:17;101489.22;;;0.50;67.44
64053;BME280;50299;49.524;8.536;2023-01-31T00:28:44;101479.16;;;0.62;68.50
64053;BME280;50299;49.524;8.536;2023-01-31T00:31:12;101485.53;;;0.56;71.31
64053;BME280;50299;49.524;8.536;2023-01-31T00:33:40;101487.75;;;0.24;67.34
64053;BME280;50299;49.524;8.536;2023-01-31T00:36:13;101469.41;;;-0.04;68.76
64053;BME280;50299;49.524;8.536;2023-01-31T00:38:40;101481.91;;;-0.15;68.60
64053;BME280;50299;49.524;8.536;2023-01-31T00:41:10;101479.78;;;-0.01;69.20
64053;BME280;50299;49.524;8.536;2023-01-31T00:43:37;101484.56;;;0.27;68.71
64053;BME280;50299;49.524;8.536;2023-01-31T00:46:04;101483.19;;;-0.17;67.52
64053;BME280;50299;49.524;8.536;2023-01-31T00:48:30;101467.53;;;0.20;69.93
64053;BME280;50299;49.524;8.536;2023-01-31T00:50:57;101465.72;;;-0.10;68.48
64053;BME280;50299;49.524;8.536;2023-01-31T00:53:23;101458.28;;;-0.44;69.08
64053;BME280;50299;49.524;8.536;2023-01-31T00:55:52;101455.38;;;-0.31;69.96
64053;BME280;50299;49.524;8.536;2023-01-31T00:58:19;101464.81;;;-0.34;69.22
64053;BME280;50299;49.524;8.536;2023-01-31T01:00:46;101474.03;;;-0.35;68.86
64053;BME280;50299;49.524;8.536;2023-01-31T01:03:13;101461.19;;;-0.28;68.59
64053;BME280;50299;49.524;8.536;2023-01-31T01:05:40;101464.94;;;-0.40;69.01
64053;BME280;50299;49.524;8.536;2023-01-31T01:08:07;101463.28;;;-0.30;68.77
64053;BME280;50299;49.524;8.536;2023-01-31T01:10:33;101474.34;;;-0.13;67.93
64053;BME280;50299;49.524;8.536;2023-01-31T01:13:00;101470.34;;;-0.40;67.92
64053;BME280;50299;49.524;8.536;2023-01-31T01:15:27;101472.34;;;-0.47;68.79
64053;BME280;50299;49.524;8.536;2023-01-31T01:17:54;101474.91;;;-0.22;69.09
64053;BME280;50299;49.524;8.536;2023-01-31T01:20:20;101483.16;;;-0.29;68.27
64053;BME280;50299;49.524;8.536;2023-01-31T01:22:47;101484.53;;;-0.38;69.82
64053;BME280;50299;49.524;8.536;2023-01-31T01:25:13;101475.88;;;-0.17;68.69
64053;BME280;50299;49.524;8.536;2023-01-31T01:27:40;101485.13;;;0.06;68.10
64053;BME280;50299;49.524;8.536;2023-01-31T01:30:07;101480.88;;;0.10;66.47
64053;BME280;50299;49.524;8.536;2023-01-31T01:32:33;101486.66;;;0.02;67.79
64053;BME280;50299;49.524;8.536;2023-01-31T01:34:59;101492.97;;;0.26;69.11
64053;BME280;50299;49.524;8.536;2023-01-31T01:37:26;101490.81;;;0.04;67.10
64053;BME280;50299;49.524;8.536;2023-01-31T01:39:52;101485.50;;;0.09;66.06
64053;BME280;50299;49.524;8.536;2023-01-31T01:42:22;101487.78;;;-0.18;67.89
64053;BME280;50299;49.524;8.536;2023-01-31T01:44:54;101478.22;;;-0.20;68.90
64053;BME280;50299;49.524;8.536;2023-01-31T01:47:46;101496.88;;;0.18;71.23
64053;BME280;50299;49.524;8.536;2023-01-31T01:50:22;101492.84;;;0.20;68.61
64053;BME280;50299;49.524;8.536;2023-01-31T01:52:55;101492.97;;;0.14;66.14
64053;BME280;50299;49.524;8.536;2023-01-31T01:55:33;101491.66;;;0.05;66.37
64053;BME280;50299;49.524;8.536;2023-01-31T01:58:26;101503.75;;;0.44;69.68
64053;BME280;50299;49.524;8.536;2023-01-31T02:00:54;101504.94;;;0.83;65.50
64053;BME280;50299;49.524;8.536;2023-01-31T02:03:21;101506.72;;;0.66;64.75
64053;BME280;50299;49.524;8.536;2023-01-31T02:05:55;101506.47;;;0.91;67.65
64053;BME280;50299;49.524;8.536;2023-01-31T02:08:24;101503.16;;;0.42;67.65
64053;BME280;50299;49.524;8.536;2023-01-31T02:11:00;101498.06;;;0.81;73.20
64053;BME280;50299;49.524;8.536;2023-01-31T02:13:29;101500.94;;;0.62;65.93
64053;BME280;50299;49.524;8.536;2023-01-31T02:15:56;101503.50;;;0.81;67.88
64053;BME280;50299;49.524;8.536;2023-01-31T02:18:23;101508.59;;;0.42;64.31
64053;BME280;50299;49.524;8.536;2023-01-31T02:21:20;101511.09;;;0.67;68.12
64053;BME280;50299;49.524;8.536;2023-01-31T02:24:10;101508.97;;;0.81;66.08
64053;BME280;50299;49.524;8.536;2023-01-31T02:27:07;101506.19;;;1.16;67.46
64053;BME280;50299;49.524;8.536;2023-01-31T02:38:22;101501.84;;;0.44;64.72
64053;BME280;50299;49.524;8.536;2023-01-31T02:41:02;101510.16;;;0.50;68.17
64053;BME280;50299;49.524;8.536;2023-01-31T02:49:46;101498.75;;;1.00;64.51
64053;BME280;50299;49.524;8.536;2023-01-31T02:52:34;101496.00;;;1.23;64.87
64053;BME280;50299;49.524;8.536;2023-01-31T02:57:52;101486.44;;;1.09;64.68
64053;BME280;50299;49.524;8.536;2023-01-31T03:00:35;101496.06;;;0.64;65.45
64053;BME280;50299;49.524;8.536;2023-01-31T03:03:05;101491.78;;;0.80;72.87
64053;BME280;50299;49.524;8.536;2023-01-31T03:05:33;101480.09;;;0.56;64.04
64053;BME280;50299;49.524;8.536;2023-01-31T03:08:01;101494.72;;;0.20;64.80
64053;BME280;50299;49.524;8.536;2023-01-31T03:10:50;101493.34;;;0.64;67.54
64053;BME280;50299;49.524;8.536;2023-01-31T03:16:27;101493.09;;;0.31;65.21
64053;BME280;50299;49.524;8.536;2023-01-31T03:19:17;101489.91;;;0.22;66.17
64053;BME280;50299;49.524;8.536;2023-01-31T03:21:49;101498.78;;;0.41;70.14
64053;BME280;50299;49.524;8.536;2023-01-31T03:24:18;101498.81;;;-0.13;65.53
64053;BME280;50299;49.524;8.536;2023-01-31T03:26:46;101504.84;;;-0.41;65.19
64053;BME280;50299;49.524;8.536;2023-01-31T03:29:14;101501.69;;;-0.26;68.31
64053;BME280;50299;49.524;8.536;2023-01-31T03:31:46;101508.19;;;-0.57;66.83
64053;BME280;50299;49.524;8.536;2023-01-31T03:34:15;101505.88;;;-0.72;66.79
64053;BME280;50299;49.524;8.536;2023-01-31T03:36:48;101515.00;;;-0.66;68.75
64053;BME280;50299;49.524;8.536;2023-01-31T03:39:41;101511.88;;;-0.21;71.40
64053;BME280;50299;49.524;8.536;2023-01-31T03:44:58;101517.50;;;-0.65;67.08
64053;BME280;50299;49.524;8.536;2023-01-31T03:47:40;101522.38;;;-0.55;69.46
64053;BME280;50299;49.524;8.536;2023-01-31T03:50:28;101527.03;;;-0.44;70.55
64053;BME280;50299;49.524;8.536;2023-01-31T03:53:13;101529.44;;;-0.06;75.25
64053;BME280;50299;49.524;8.536;2023-01-31T03:55:45;101535.88;;;0.12;73.99
64053;BME280;50299;49.524;8.536;2023-01-31T03:58:17;101534.72;;;0.31;72.68
64053;BME280;50299;49.524;8.536;2023-01-31T04:00:47;101536.88;;;0.29;70.10
64053;BME280;50299;49.524;8.536;2023-01-31T04:03:20;101538.06;;;0.33;71.28
64053;BME280;50299;49.524;8.536;2023-01-31T04:05:49;101542.44;;;-0.08;67.93
64053;BME280;50299;49.524;8.536;2023-01-31T04:08:16;101536.38;;;0.44;82.08
64053;BME280;50299;49.524;8.536;2023-01-31T04:10:42;101536.88;;;0.76;87.22
64053;BME280;50299;49.524;8.536;2023-01-31T04:13:09;101540.31;;;0.71;71.66
64053;BME280;50299;49.524;8.536;2023-01-31T04:15:35;101540.53;;;0.46;75.53
64053;BME280;50299;49.524;8.536;2023-01-31T04:18:02;101532.63;;;0.80;85.82
64053;BME280;50299;49.524;8.536;2023-01-31T04:20:28;101528.47;;;1.13;86.54
64053;BME280;50299;49.524;8.536;2023-01-31T04:22:55;101532.91;;;1.31;87.60
64053;BME280;50299;49.524;8.536;2023-01-31T04:25:21;101540.88;;;1.44;84.28
64053;BME280;50299;49.524;8.536;2023-01-31T04:27:48;101537.44;;;1.37;82.51
64053;BME280;50299;49.524;8.536;2023-01-31T04:30:16;101538.09;;;1.56;88.28
64053;BME280;50299;49.524;8.536;2023-01-31T04:32:43;101539.19;;;1.43;81.13
64053;BME280;50299;49.524;8.536;2023-01-31T04:35:09;101537.22;;;1.15;78.92
64053;BME280;50299;49.524;8.536;2023-01-31T04:37:35;101539.38;;;1.01;75.89
64053;BME280;50299;49.524;8.536;2023-01-31T04:40:03;101527.66;;;1.01;77.74
64053;BME280;50299;49.524;8.536;2023-01-31T04:42:31;101532.63;;;0.68;68.71
64053;BME280;50299;49.524;8.536;2023-01-31T04:44:57;101530.25;;;0.60;76.55
64053;BME280;50299;49.524;8.536;2023-01-31T04:47:23;101532.88;;;0.55;75.06
64053;BME280;50299;49.524;8.536;2023-01-31T04:49:50;101530.59;;;0.40;75.76
64053;BME280;50299;49.524;8.536;2023-01-31T04:52:18;101528.22;;;0.32;73.32
64053;BME280;50299;49.524;8.536;2023-01-31T04:54:46;101525.63;;;0.37;77.88
64053;BME280;50299;49.524;8.536;2023-01-31T04:57:13;101527.19;;;0.57;77.35
64053;BME280;50299;49.524;8.536;2023-01-31T04:59:39;101531.22;;;0.66;80.06
64053;BME280;50299;49.524;8.536;2023-01-31T05:02:07;101533.69;;;0.56;75.08
64053;BME280;50299;49.524;8.536;2023-01-31T05:04:34;101516.38;;;0.27;73.88
64053;BME280;50299;49.524;8.536;2023-01-31T05:07:00;101513.56;;;0.33;80.57
64053;BME280;50299;49.524;8.536;2023-01-31T05:09:26;101517.94;;;0.34;80.32
64053;BME280;50299;49.524;8.536;2023-01-31T05:11:53;101512.06;;;0.49;85.21
64053;BME280;50299;49.524;8.536;2023-01-31T05:14:19;101516.66;;;0.60;85.92
64053;BME280;50299;49.524;8.536;2023-01-31T05:16:46;101518.81;;;0.82;87.33
64053;BME280;50299;49.524;8.536;2023-01-31T05:19:15;101515.47;;;0.68;82.57
64053;BME280;50299;49.524;8.536;2023-01-31T05:21:42;101522.06;;;0.49;80.99
64053;BME280;50299;49.524;8.536;2023-01-31T05:24:28;101517.72;;;0.47;83.80
64053;BME280;50299;49.524;8.536;2023-01-31T05:26:56;101519.50;;;0.42;80.68
64053;BME280;50299;49.524;8.536;2023-01-31T05:29:28;101513.19;;;0.18;79.21
64053;BME280;50299;49.524;8.536;2023-01-31T05:31:56;101517.53;;;0.07;79.71
64053;BME280;50299;49.524;8.536;2023-01-31T05:34:24;101516.31;;;-0.09;75.58
64053;BME280;50299;49.524;8.536;2023-01-31T05:36:51;101508.31;;;0.20;84.45
64053;BME280;50299;49.524;8.536;2023-01-31T05:39:18;101513.75;;;0.20;83.77
64053;BME280;50299;49.524;8.536;2023-01-31T05:41:44;101519.97;;;0.51;86.96
64053;BME280;50299;49.524;8.536;2023-01-31T05:44:11;101522.31;;;0.47;80.38
64053;BME280;50299;49.524;8.536;2023-01-31T05:46:37;101514.47;;;-0.26;75.89
64053;BME280;50299;49.524;8.536;2023-01-31T05:49:04;101530.03;;;-0.04;83.50
64053;BME280;50299;49.524;8.536;2023-01-31T05:51:30;101513.59;;;0.03;82.36
64053;BME280;50299;49.524;8.536;2023-01-31T05:53:57;101519.56;;;-0.18;78.67
64053;BME280;50299;49.524;8.536;2023-01-31T05:56:24;101513.69;;;-0.15;82.83
64053;BME280;50299;49.524;8.536;2023-01-31T05:58:50;101520.44;;;-0.06;83.32
64053;BME280;50299;49.524;8.536;2023-01-31T06:01:22;101514.25;;;0.17;86.74
64053;BME280;50299;49.524;8.536;2023-01-31T06:03:48;101516.75;;;0.30;81.02
64053;BME280;50299;49.524;8.536;2023-01-31T06:06:15;101520.41;;;0.36;84.39
64053;BME280;50299;49.524;8.536;2023-01-31T06:08:42;101519.84;;;0.34;76.60
64053;BME280;50299;49.524;8.536;2023-01-31T06:11:10;101531.34;;;0.06;77.47
64053;BME280;50299;49.524;8.536;2023-01-31T06:13:37;101536.00;;;-0.25;75.89
64053;BME280;50299;49.524;8.536;2023-01-31T06:16:05;101537.94;;;-0.81;73.10
64053;BME280;50299;49.524;8.536;2023-01-31T06:18:31;101540.34;;;-0.72;77.48
64053;BME280;50299;49.524;8.536;2023-01-31T06:20:58;101538.75;;;-0.80;76.57
64053;BME280;50299;49.524;8.536;2023-01-31T06:23:25;101537.03;;;-0.93;73.54
64053;BME280;50299;49.524;8.536;2023-01-31T06:25:52;101542.84;;;-0.89;78.47
64053;BME280;50299;49.524;8.536;2023-01-31T06:28:19;101538.78;;;-0.62;87.64
64053;BME280;50299;49.524;8.536;2023-01-31T06:30:45;101532.06;;;-0.29;87.59
64053;BME280;50299;49.524;8.536;2023-01-31T06:33:13;101532.72;;;-0.15;79.33
64053;BME280;50299;49.524;8.536;2023-01-31T06:35:39;101531.63;;;0.28;88.99
64053;BME280;50299;49.524;8.536;2023-01-31T06:38:06;101531.31;;;0.59;87.61
64053;BME280;50299;49.524;8.536;2023-01-31T06:40:33;101529.56;;;0.77;87.38
64053;BME280;50299;49.524;8.536;2023-01-31T06:43:04;101531.81;;;0.68;85.44
64053;BME280;50299;49.524;8.536;2023-01-31T06:45:30;101543.78;;;0.90;84.74
64053;BME280;50299;49.524;8.536;2023-01-31T06:47:57;101542.78;;;1.08;87.23
64053;BME280;50299;49.524;8.536;2023-01-31T06:50:23;101546.44;;;1.26;83.96
64053;BME280;50299;49.524;8.536;2023-01-31T06:52:50;101535.19;;;1.22;79.85
64053;BME280;50299;49.524;8.536;2023-01-31T06:55:16;101543.22;;;1.29;78.46
64053;BME280;50299;49.524;8.536;2023-01-31T06:57:47;101546.00;;;0.93;74.05
64053;BME280;50299;49.524;8.536;2023-01-31T07:00:14;101547.91;;;0.69;76.04
64053;BME280;50299;49.524;8.536;2023-01-31T07:02:41;101538.50;;;0.30;73.76
64053;BME280;50299;49.524;8.536;2023-01-31T07:05:07;101545.53;;;-0.04;80.00
64053;BME280;50299;49.524;8.536;2023-01-31T07:07:34;101546.56;;;0.25;82.49
64053;BME280;50299;49.524;8.536;2023-01-31T07:10:00;101547.50;;;-0.11;78.90
64053;BME280;50299;49.524;8.536;2023-01-31T07:12:27;101557.00;;;-0.50;75.03
64053;BME280;50299;49.524;8.536;2023-01-31T07:14:53;101558.19;;;-0.46;79.70
64053;BME280;50299;49.524;8.536;2023-01-31T07:17:20;101556.06;;;-0.26;79.61
64053;BME280;50299;49.524;8.536;2023-01-31T07:19:46;101564.31;;;-0.51;81.04
64053;BME280;50299;49.524;8.536;2023-01-31T07:22:13;101571.84;;;-0.35;84.76
64053;BME280;50299;49.524;8.536;2023-01-31T07:24:39;101576.78;;;-0.13;84.18
64053;BME280;50299;49.524;8.536;2023-01-31T07:27:06;101587.97;;;-0.21;76.43
64053;BME280;50299;49.524;8.536;2023-01-31T07:29:35;101582.09;;;-0.18;82.46
64053;BME280;50299;49.524;8.536;2023-01-31T07:32:06;101579.16;;;-0.17;80.92
64053;BME280;50299;49.524;8.536;2023-01-31T07:34:32;101593.81;;;-0.36;77.54
64053;BME280;50299;49.524;8.536;2023-01-31T07:36:59;101596.59;;;-0.43;77.64
64053;BME280;50299;49.524;8.536;2023-01-31T07:39:29;101593.34;;;-0.88;74.79
64053;BME280;50299;49.524;8.536;2023-01-31T07:41:56;101599.41;;;-1.11;76.55
64053;BME280;50299;49.524;8.536;2023-01-31T07:44:25;101594.88;;;-1.42;78.01
64053;BME280;50299;49.524;8.536;2023-01-31T07:46:51;101601.88;;;-1.10;83.72
64053;BME280;50299;49.524;8.536;2023-01-31T07:49:19;101602.31;;;-0.88;84.02
64053;BME280;50299;49.524;8.536;2023-01-31T07:51:46;101595.16;;;-1.00;75.39
64053;BME280;50299;49.524;8.536;2023-01-31T07:54:13;101600.25;;;-1.11;80.45
64053;BME280;50299;49.524;8.536;2023-01-31T07:56:40;101593.34;;;-1.13;80.37
64053;BME280;50299;49.524;8.536;2023-01-31T07:59:06;101591.84;;;-1.91;75.80
64053;BME280;50299;49.524;8.536;2023-01-31T08:01:32;101596.03;;;-1.57;82.55
64053;BME280;50299;49.524;8.536;2023-01-31T08:04:17;101591.06;;;-1.66;76.63
64053;BME280;50299;49.524;8.536;2023-01-31T08:06:48;101595.47;;;-1.15;83.28
64053;BME280;50299;49.524;8.536;2023-01-31T08:09:15;101595.25;;;-0.89;82.01
64053;BME280;50299;49.524;8.536;2023-01-31T08:11:42;101601.44;;;-0.82;78.13
64053;BME280;50299;49.524;8.536;2023-01-31T08:14:08;101601.88;;;-1.03;78.11
64053;BME280;50299;49.524;8.536;2023-01-31T08:16:35;101604.75;;;-0.80;78.76
64053;BME280;50299;49.524;8.536;2023-01-31T08:19:02;101606.38;;;-0.54;80.37
64053;BME280;50299;49.524;8.536;2023-01-31T08:21:28;101617.97;;;-0.46;79.55
64053;BME280;50299;49.524;8.536;2023-01-31T08:23:56;101618.19;;;-0.11;77.58
64053;BME280;50299;49.524;8.536;2023-01-31T08:26:22;101606.22;;;0.08;77.87
64053;BME280;50299;49.524;8.536;2023-01-31T08:28:50;101610.84;;;0.19;73.28
64053;BME280;50299;49.524;8.536;2023-01-31T08:31:22;101595.03;;;-0.02;72.92
64053;BME280;50299;49.524;8.536;2023-01-31T08:33:50;101600.09;;;-0.06;73.91
64053;BME280;50299;49.524;8.536;2023-01-31T08:36:20;101597.00;;;-0.09;75.55
64053;BME280;50299;49.524;8.536;2023-01-31T08:38:47;101594.84;;;-0.00;76.46
64053;BME280;50299;49.524;8.536;2023-01-31T08:41:18;101598.59;;;-0.68;73.72
64053;BME280;50299;49.524;8.536;2023-01-31T08:43:48;101587.44;;;-0.12;79.27
64053;BME280;50299;49.524;8.536;2023-01-31T08:46:27;101584.91;;;-0.25;75.68
64053;BME280;50299;49.524;8.536;2023-01-31T08:48:56;101590.09;;;-0.23;76.99
64053;BME280;50299;49.524;8.536;2023-01-31T08:51:23;101599.09;;;-0.60;73.36
64053;BME280;50299;49.524;8.536;2023-01-31T08:53:51;101590.66;;;-0.70;75.61
64053;BME280;50299;49.524;8.536;2023-01-31T08:56:18;101590.28;;;-0.73;74.10
64053;BME280;50299;49.524;8.536;2023-01-31T08:58:46;101589.72;;;-1.25;74.39
64053;BME280;50299;49.524;8.536;2023-01-31T09:01:15;101579.50;;;-0.80;78.22
64053;BME280;50299;49.524;8.536;2023-01-31T09:03:46;101579.94;;;-0.65;79.29
64053;BME280;50299;49.524;8.536;2023-01-31T09:06:15;101585.44;;;-0.90;73.90
64053;BME280;50299;49.524;8.536;2023-01-31T09:08:41;101576.63;;;-0.85;75.39
64053;BME280;50299;49.524;8.536;2023-01-31T09:11:08;101574.47;;;-0.58;75.51
64053;BME280;50299;49.524;8.536;2023-01-31T09:13:35;101601.16;;;-0.73;72.36
64053;BME280;50299;49.524;8.536;2023-01-31T09:16:06;101601.06;;;-0.67;73.66
64053;BME280;50299;49.524;8.536;2023-01-31T09:18:38;101594.94;;;-0.81;74.68
64053;BME280;50299;49.524;8.536;2023-01-31T09:21:07;101588.06;;;-1.01;74.57
64053;BME280;50299;49.524;8.536;2023-01-31T09:23:34;101585.50;;;-1.46;74.07
64053;BME280;50299;49.524;8.536;2023-01-31T09:26:01;101591.31;;;-0.93;76.63
64053;BME280;50299;49.524;8.536;2023-01-31T09:28:27;101592.84;;;-0.79;73.61
64053;BME280;50299;49.524;8.536;2023-01-31T09:30:54;101585.16;;;-0.82;74.07
64053;BME280;50299;49.524;8.536;2023-01-31T09:33:21;101582.13;;;-0.92;73.87
64053;BME280;50299;49.524;8.536;2023-01-31T09:35:56;101562.81;;;-0.84;76.81
64053;BME280;50299;49.524;8.536;2023-01-31T09:38:23;101571.88;;;-1.15;75.29
64053;BME280;50299;49.524;8.536;2023-01-31T09:40:49;101569.66;;;-0.99;77.00
64053;BME280;50299;49.524;8.536;2023-01-31T09:43:18;101560.19;;;-0.90;76.18
64053;BME280;50299;49.524;8.536;2023-01-31T09:45:49;101564.16;;;-0.93;73.81
64053;BME280;50299;49.524;8.536;2023-01-31T09:48:20;101566.41;;;-1.08;75.41
64053;BME280;50299;49.524;8.536;2023-01-31T09:50:51;101568.72;;;-0.87;74.96
64053;BME280;50299;49.524;8.536;2023-01-31T09:53:22;101565.00;;;-0.56;73.18
64053;BME280;50299;49.524;8.536;2023-01-31T09:55:57;101572.66;;;-0.34;72.91
64053;BME280;50299;49.524;8.536;2023-01-31T09:58:37;101580.16;;;0.01;73.86
64053;BME280;50299;49.524;8.536;2023-01-31T10:01:29;101572.22;;;-0.01;72.01
64053;BME280;50299;49.524;8.536;2023-01-31T10:06:29;101575.19;;;-0.03;71.68
64053;BME280;50299;49.524;8.536;2023-01-31T10:11:53;101581.16;;;0.18;71.50
64053;BME280;50299;49.524;8.536;2023-01-31T10:14:35;101590.34;;;0.47;72.00
64053;BME280;50299;49.524;8.536;2023-01-31T10:19:51;101570.72;;;-0.27;73.82
64053;BME280;50299;49.524;8.536;2023-01-31T10:22:27;101566.97;;;-0.14;71.88
64053;BME280;50299;49.524;8.536;2023-01-31T10:25:00;101550.47;;;0.29;71.58
64053;BME280;50299;49.524;8.536;2023-01-31T10:27:49;101537.00;;;-0.08;72.20
64053;BME280;50299;49.524;8.536;2023-01-31T10:30:20;101537.78;;;-0.19;72.05
64053;BME280;50299;49.524;8.536;2023-01-31T10:32:59;101549.38;;;-0.12;72.89
64053;BME280;50299;49.524;8.536;2023-01-31T10:35:38;101562.09;;;0.06;72.35
64053;BME280;50299;49.524;8.536;2023-01-31T10:38:33;101542.31;;;0.41;72.67
64053;BME280;50299;49.524;8.536;2023-01-31T10:41:10;101523.44;;;-0.26;71.24
64053;BME280;50299;49.524;8.536;2023-01-31T10:44:06;101534.59;;;-0.16;71.09
64053;BME280;50299;49.524;8.536;2023-01-31T10:46:42;101540.78;;;0.03;71.36
64053;BME280;50299;49.524;8.536;2023-01-31T10:49:09;101533.00;;;0.84;70.75
64053;BME280;50299;49.524;8.536;2023-01-31T10:54:46;101550.28;;;0.78;69.70
64053;BME280;50299;49.524;8.536;2023-01-31T10:57:15;101547.19;;;0.97;69.09
64053;BME280;50299;49.524;8.536;2023-01-31T10:59:45;101548.25;;;0.96;65.98
64053;BME280;50299;49.524;8.536;2023-01-31T11:04:45;101554.41;;;0.68;68.25
64053;BME280;50299;49.524;8.536;2023-01-31T11:07:11;101547.63;;;0.47;66.67
64053;BME280;50299;49.524;8.536;2023-01-31T11:09:49;101552.03;;;0.07;69.32
64053;BME280;50299;49.524;8.536;2023-01-31T11:12:21;101535.56;;;0.43;70.32
64053;BME280;50299;49.524;8.536;2023-01-31T11:15:16;101525.28;;;0.69;67.59
64053;BME280;50299;49.524;8.536;2023-01-31T11:17:45;101519.25;;;0.67;68.11
64053;BME280;50299;49.524;8.536;2023-01-31T11:20:28;101501.75;;;0.51;70.47
64053;BME280;50299;49.524;8.536;2023-01-31T11:22:55;101499.84;;;0.87;68.73
64053;BME280;50299;49.524;8.536;2023-01-31T11:25:24;101493.94;;;0.66;67.39
64053;BME280;50299;49.524;8.536;2023-01-31T11:27:53;101482.44;;;0.76;66.22
64053;BME280;50299;49.524;8.536;2023-01-31T11:32:53;101456.81;;;0.37;68.47
64053;BME280;50299;49.524;8.536;2023-01-31T11:35:21;101458.09;;;0.34;67.90
64053;BME280;50299;49.524;8.536;2023-01-31T11:37:50;101465.19;;;0.35;67.56
64053;BME280;50299;49.524;8.536;2023-01-31T11:40:31;101476.44;;;0.51;68.62
64053;BME280;50299;49.524;8.536;2023-01-31T11:43:01;101458.78;;;1.29;70.72
64053;BME280;50299;49.524;8.536;2023-01-31T11:45:33;101457.53;;;1.19;66.41
64053;BME280;50299;49.524;8.536;2023-01-31T11:48:08;101447.88;;;1.29;63.71
64053;BME280;50299;49.524;8.536;2023-01-31T11:50:39;101441.59;;;1.85;67.17
64053;BME280;50299;49.524;8.536;2023-01-31T11:53:26;101420.69;;;1.17;64.74
64053;BME280;50299;49.524;8.536;2023-01-31T11:55:56;101413.88;;;1.03;66.57
64053;BME280;50299;49.524;8.536;2023-01-31T11:58:32;101416.13;;;0.94;65.28
64053;BME280;50299;49.524;8.536;2023-01-31T12:01:00;101399.53;;;1.07;66.46
64053;BME280;50299;49.524;8.536;2023-01-31T12:03:28;101405.53;;;0.69;66.54
64053;BME280;50299;49.524;8.536;2023-01-31T12:06:06;101410.97;;;0.69;66.80
64053;BME280;50299;49.524;8.536;2023-01-31T12:08:39;101410.28;;;0.74;68.67
64053;BME280;50299;49.524;8.536;2023-01-31T12:13:50;101391.44;;;0.72;68.87
64053;BME280;50299;49.524;8.536;2023-01-31T12:16:23;101397.38;;;0.69;72.06
64053;BME280;50299;49.524;8.536;2023-01-31T12:26:59;101390.00;;;0.29;70.78
64053;BME280;50299;49.524;8.536;2023-01-31T12:30:20;101383.84;;;0.22;70.27
64053;BME280;50299;49.524;8.536;2023-01-31T12:33:12;101374.13;;;0.14;71.15
64053;BME280;50299;49.524;8.536;2023-01-31T12:36:16;101380.28;;;0.10;69.97
64053;BME280;50299;49.524;8.536;2023-01-31T12:41:35;101377.78;;;0.43;68.64
64053;BME280;50299;49.524;8.536;2023-01-31T12:44:23;101392.72;;;0.29;70.92
64053;BME280;50299;49.524;8.536;2023-01-31T12:52:30;101376.13;;;0.31;69.56
64053;BME280;50299;49.524;8.536;2023-01-31T12:55:17;101351.81;;;0.76;69.11
64053;BME280;50299;49.524;8.536;2023-01-31T12:58:18;101356.34;;;0.59;69.95
64053;BME280;50299;49.524;8.536;2023-01-31T13:01:06;101365.56;;;0.69;70.76
64053;BME280;50299;49.524;8.536;2023-01-31T13:06:57;101358.50;;;0.45;69.10
64053;BME280;50299;49.524;8.536;2023-01-31T13:09:32;101349.41;;;0.39;70.75
64053;BME280;50299;49.524;8.536;2023-01-31T13:12:06;101338.78;;;0.14;69.70
64053;BME280;50299;49.524;8.536;2023-01-31T13:14:44;101317.47;;;0.46;71.08
64053;BME280;50299;49.524;8.536;2023-01-31T13:17:17;101300.91;;;0.36;69.50
64053;BME280;50299;49.524;8.536;2023-01-31T13:19:50;101304.31;;;0.55;71.46
64053;BME280;50299;49.524;8.536;2023-01-31T13:22:31;101309.41;;;0.52;72.27
64053;BME280;50299;49.524;8.536;2023-01-31T13:27:37;101307.00;;;0.67;70.54
64053;BME280;50299;49.524;8.536;2023-01-31T13:32:44;101294.41;;;0.78;69.02
64053;BME280;50299;49.524;8.536;2023-01-31T13:35:31;101302.34;;;0.27;68.91
64053;BME280;50299;49.524;8.536;2023-01-31T13:38:14;101294.72;;;0.12;70.71
64053;BME280;50299;49.524;8.536;2023-01-31T13:40:51;101301.88;;;0.30;69.69
64053;BME280;50299;49.524;8.536;2023-01-31T13:43:19;101302.88;;;0.01;70.72
64053;BME280;50299;49.524;8.536;2023-01-31T13:45:51;101304.50;;;-0.22;71.07
64053;BME280;50299;49.524;8.536;2023-01-31T13:48:36;101308.06;;;0.02;71.88
64053;BME280;50299;49.524;8.536;2023-01-31T13:51:53;101311.84;;;0.01;69.63
64053;BME280;50299;49.524;8.536;2023-01-31T13:56:32;101292.56;;;-0.09;70.46
64053;BME280;50299;49.524;8.536;2023-01-31T13:59:00;101295.44;;;-0.04;72.03
64053;BME280;50299;49.524;8.536;2023-01-31T14:01:30;101308.06;;;-0.33;70.93
64053;BME280;50299;49.524;8.536;2023-01-31T14:04:20;101296.47;;;-0.40;71.65
64053;BME280;50299;49.524;8.536;2023-01-31T14:09:32;101297.41;;;-0.58;72.14
64053;BME280;50299;49.524;8.536;2023-01-31T14:12:01;101296.53;;;-0.82;73.18
64053;BME280;50299;49.524;8.536;2023-01-31T14:14:53;101276.72;;;-0.71;74.11
64053;BME280;50299;49.524;8.536;2023-01-31T14:22:17;101270.94;;;-0.74;73.45
64053;BME280;50299;49.524;8.536;2023-01-31T14:35:27;101271.44;;;-0.19;72.62
64053;BME280;50299;49.524;8.536;2023-01-31T14:41:12;101281.13;;;-0.23;71.11
64053;BME280;50299;49.524;8.536;2023-01-31T14:49:48;101279.94;;;0.08;71.00
64053;BME280;50299;49.524;8.536;2023-01-31T14:52:31;101289.28;;;0.01;72.20
64053;BME280;50299;49.524;8.536;2023-01-31T14:57:46;101297.72;;;0.28;73.60